Time;durP1;ratioP1;P1;durP2;ratioP2;P2;SDS_P1;SDS_P2;PMS_P1;PMS_P2;Temp;Humidity;BMP_temperature;BMP_pressure;BME280_temperature;BME280_humidity;BME280_pressure;Samples;Min_cycle;Max_cycle;Signal;HPM_P1;HPM_P2
2022/05/23 00:01:43;;;;;;;4.57;2.67;;;14.20;99.90;;;;;;4942767;29;20221;-61
2022/05/23 00:04:09;;;;;;;3.93;2.43;;;14.20;99.90;;;;;;4946883;29;20198;-60
2022/05/23 00:06:35;;;;;;;3.13;2.50;;;14.20;99.90;;;;;;4942220;29;20221;-60
2022/05/23 00:09:00;;;;;;;3.80;3.37;;;14.20;99.90;;;;;;4946159;28;20724;-61
2022/05/23 00:11:26;;;;;;;5.57;3.03;;;14.20;99.90;;;;;;4929277;29;20692;-60
2022/05/23 00:13:51;;;;;;;3.87;2.33;;;14.10;99.90;;;;;;4930760;29;20278;-60
2022/05/23 00:16:21;;;;;;;2.53;2.33;;;14.10;99.90;;;;;;4929548;29;20693;-59
2022/05/23 00:18:48;;;;;;;2.97;2.67;;;14.10;99.90;;;;;;4930094;29;20202;-59
2022/05/23 00:21:15;;;;;;;4.80;3.53;;;14.00;99.90;;;;;;4927913;29;20203;-59
2022/05/23 00:23:41;;;;;;;3.17;2.87;;;14.00;99.90;;;;;;4929519;29;20199;-59
2022/05/23 00:26:06;;;;;;;18.53;6.73;;;14.00;99.90;;;;;;4928985;29;20341;-59
2022/05/23 00:28:32;;;;;;;6.33;4.73;;;14.00;99.90;;;;;;4929237;29;20191;-60
2022/05/23 00:30:57;;;;;;;6.27;4.53;;;13.90;99.90;;;;;;4927337;29;20202;-60
2022/05/23 00:36:07;;;;;;;3.73;3.23;;;13.90;99.90;;;;;;4927297;29;20595;-60
2022/05/23 00:38:33;;;;;;;4.23;3.33;;;13.90;99.90;;;;;;4928734;29;20191;-60
2022/05/23 00:44:18;;;;;;;7.03;4.60;;;13.80;99.90;;;;;;4928339;29;20317;-60
2022/05/23 00:47:01;;;;;;;8.07;5.37;;;13.70;99.90;;;;;;4927467;29;20367;-59
2022/05/23 00:49:30;;;;;;;8.83;4.23;;;13.70;99.90;;;;;;4927812;29;20697;-59
2022/05/23 00:51:58;;;;;;;7.53;4.27;;;13.70;99.90;;;;;;4926911;29;20211;-59
2022/05/23 00:54:28;;;;;;;4.30;3.17;;;13.60;99.90;;;;;;4934991;29;20199;-60
2022/05/23 00:56:53;;;;;;;4.50;3.43;;;13.70;99.90;;;;;;4925494;29;20242;-59
2022/05/23 00:59:27;;;;;;;11.80;5.23;;;13.70;99.90;;;;;;4930779;29;20206;-59
2022/05/23 01:01:53;;;;;;;8.37;4.97;;;13.60;99.90;;;;;;4924631;29;20630;-61
2022/05/23 01:04:19;;;;;;;4.37;3.97;;;13.60;99.90;;;;;;4928616;29;20201;-60
2022/05/23 01:06:45;;;;;;;7.43;4.40;;;13.60;99.90;;;;;;4938089;29;20225;-59
2022/05/23 01:09:11;;;;;;;6.00;3.63;;;13.50;99.90;;;;;;4927965;29;20197;-60
2022/05/23 01:11:38;;;;;;;5.47;3.87;;;13.50;99.90;;;;;;4927215;29;20209;-60
2022/05/23 01:14:03;;;;;;;3.33;3.00;;;13.40;99.90;;;;;;4927848;29;20199;-61
2022/05/23 01:16:29;;;;;;;3.40;3.10;;;13.40;99.90;;;;;;4926519;29;20229;-61
2022/05/23 01:18:55;;;;;;;3.47;3.13;;;13.40;99.90;;;;;;4930790;29;20180;-61
2022/05/23 01:21:53;;;;;;;4.63;3.23;;;13.30;99.90;;;;;;4926191;29;20574;-61
2022/05/23 01:24:29;;;;;;;3.83;3.43;;;13.30;99.90;;;;;;4926408;29;20221;-62
2022/05/23 01:26:56;;;;;;;5.53;4.40;;;13.30;99.90;;;;;;4924170;29;20571;-62
2022/05/23 01:29:22;;;;;;;4.27;3.73;;;13.30;99.90;;;;;;4927791;29;20195;-62
2022/05/23 01:31:47;;;;;;;3.83;2.90;;;13.30;99.90;;;;;;4941021;29;20228;-62
2022/05/23 01:34:13;;;;;;;3.37;3.07;;;13.20;99.90;;;;;;4928700;28;20195;-62
2022/05/23 01:36:38;;;;;;;3.70;3.40;;;13.30;99.90;;;;;;4926148;29;20218;-60
2022/05/23 01:39:04;;;;;;;3.23;3.03;;;13.20;99.90;;;;;;4933582;29;20189;-61
2022/05/23 01:41:30;;;;;;;3.53;3.10;;;13.20;99.90;;;;;;4937922;28;20257;-61
2022/05/23 01:43:55;;;;;;;4.33;3.93;;;13.20;99.90;;;;;;4927639;29;20202;-61
2022/05/23 01:46:21;;;;;;;4.37;2.50;;;13.10;99.90;;;;;;4937795;29;20977;-61
2022/05/23 01:48:47;;;;;;;2.90;2.70;;;13.10;99.90;;;;;;4943645;28;20677;-61
2022/05/23 01:51:12;;;;;;;3.73;3.47;;;13.10;99.90;;;;;;4926611;29;20301;-61
2022/05/23 01:53:38;;;;;;;3.50;3.20;;;13.10;99.90;;;;;;4930282;29;20277;-61
2022/05/23 01:56:07;;;;;;;6.17;3.80;;;13.10;99.90;;;;;;4935578;29;20562;-61
2022/05/23 02:01:18;;;;;;;4.43;4.03;;;13.10;99.90;;;;;;4933668;29;20614;-62
2022/05/23 02:03:46;;;;;;;3.50;3.20;;;13.10;99.90;;;;;;4927505;29;20759;-62
2022/05/23 02:06:12;;;;;;;5.67;3.50;;;13.10;99.90;;;;;;4935876;29;20217;-62
2022/05/23 02:08:37;;;;;;;5.23;3.47;;;13.00;99.90;;;;;;4944166;29;20198;-61
2022/05/23 02:11:06;;;;;;;3.67;3.07;;;13.00;99.90;;;;;;4925811;29;20222;-65
2022/05/23 02:13:36;;;;;;;4.77;4.03;;;13.00;99.90;;;;;;4927546;29;20665;-62
2022/05/23 02:16:02;;;;;;;17.53;14.27;;;13.00;99.90;;;;;;4933856;29;20222;-62
2022/05/23 02:18:28;;;;;;;31.00;22.40;;;13.00;99.90;;;;;;4927664;29;20222;-62
2022/05/23 02:20:53;;;;;;;32.40;11.47;;;13.00;99.90;;;;;;4933431;29;20230;-63
2022/05/23 02:23:19;;;;;;;32.27;17.73;;;12.90;99.90;;;;;;4928967;29;20379;-61
2022/05/23 02:25:45;;;;;;;30.57;12.73;;;12.90;99.90;;;;;;4934195;29;20309;-61
2022/05/23 02:28:11;;;;;;;28.17;9.63;;;12.90;99.90;;;;;;4936970;28;20327;-61
2022/05/23 02:30:37;;;;;;;19.80;6.77;;;12.90;99.90;;;;;;4931427;29;20255;-62
2022/05/23 02:33:02;;;;;;;26.90;15.07;;;12.90;99.90;;;;;;4937522;29;20215;-62
2022/05/23 02:35:28;;;;;;;319.10;292.33;;;12.90;99.90;;;;;;4928202;29;20214;-62
2022/05/23 02:37:53;;;;;;;321.50;297.30;;;12.80;99.90;;;;;;4925569;29;20207;-63
2022/05/23 02:40:19;;;;;;;350.20;325.43;;;12.90;99.90;;;;;;4927413;29;20723;-63
2022/05/23 02:42:44;;;;;;;304.37;284.30;;;12.80;99.90;;;;;;4936418;29;20214;-62
2022/05/23 02:45:11;;;;;;;268.60;249.60;;;12.70;99.90;;;;;;4942651;29;20229;-61
2022/05/23 02:47:36;;;;;;;357.00;329.70;;;12.70;99.90;;;;;;4926491;28;20632;-62
2022/05/23 02:50:03;;;;;;;80.07;73.80;;;12.70;99.90;;;;;;4942243;29;20195;-65
2022/05/23 02:52:29;;;;;;;43.57;33.97;;;12.70;99.90;;;;;;4925850;29;20202;-62
2022/05/23 02:54:54;;;;;;;155.57;145.33;;;12.70;99.90;;;;;;4942289;29;20614;-62
2022/05/23 02:57:20;;;;;;;119.27;106.37;;;12.60;99.90;;;;;;4934344;29;21034;-62
2022/05/23 02:59:45;;;;;;;6.77;4.30;;;12.60;99.90;;;;;;4936247;28;20218;-63
2022/05/23 03:04:55;;;;;;;10.77;6.60;;;12.60;99.90;;;;;;4935848;29;20680;-62
2022/05/23 03:07:21;;;;;;;12.20;6.73;;;12.60;99.90;;;;;;4926169;29;20203;-62
2022/05/23 03:09:46;;;;;;;8.37;5.80;;;12.60;99.90;;;;;;4942808;29;20301;-62
2022/05/23 03:12:12;;;;;;;12.80;7.53;;;12.60;99.90;;;;;;4925682;29;20246;-63
2022/05/23 03:14:38;;;;;;;15.63;6.37;;;12.60;99.90;;;;;;4941021;29;20261;-62
2022/05/23 03:17:05;;;;;;;24.30;13.27;;;12.60;99.90;;;;;;4933550;28;20216;-61
2022/05/23 03:19:34;;;;;;;191.77;179.37;;;12.60;99.90;;;;;;4930822;29;20222;-63
2022/05/23 03:27:28;;;;;;;106.20;97.97;;;12.60;99.90;;;;;;4935184;29;20691;-62
2022/05/23 03:29:53;;;;;;;35.63;10.93;;;12.60;99.90;;;;;;4932417;29;20201;-60
2022/05/23 03:32:19;;;;;;;40.80;15.33;;;12.60;99.90;;;;;;4928723;29;20204;-62
2022/05/23 03:34:44;;;;;;;36.07;12.03;;;12.60;99.90;;;;;;4941442;29;20687;-61
2022/05/23 03:37:10;;;;;;;117.10;108.00;;;12.60;99.90;;;;;;4939678;29;20265;-62
2022/05/23 03:39:38;;;;;;;84.63;77.97;;;12.60;99.90;;;;;;4942147;29;20290;-62
2022/05/23 03:42:06;;;;;;;31.20;13.70;;;12.60;99.90;;;;;;4928263;29;20230;-62
2022/05/23 03:44:32;;;;;;;41.80;16.00;;;12.50;99.90;;;;;;4948253;29;20525;-62
2022/05/23 03:46:57;;;;;;;116.07;67.93;;;12.60;99.90;;;;;;4932860;28;20247;-62
2022/05/23 03:49:23;;;;;;;31.70;10.73;;;12.70;99.90;;;;;;4941092;29;20207;-62
2022/05/23 03:51:48;;;;;;;101.97;32.40;;;12.70;99.90;;;;;;4928223;29;20202;-63
2022/05/23 03:54:14;;;;;;;28.83;9.57;;;12.60;99.90;;;;;;4933236;29;20211;-64
2022/05/23 03:56:39;;;;;;;21.03;9.13;;;12.60;99.90;;;;;;4940836;29;20218;-62
2022/05/23 03:59:05;;;;;;;50.93;42.50;;;12.70;99.90;;;;;;4938193;29;20296;-62
2022/05/23 04:01:30;;;;;;;22.93;9.37;;;12.70;99.90;;;;;;4930213;29;20641;-60
2022/05/23 04:03:57;;;;;;;25.00;8.90;;;12.80;99.90;;;;;;4928109;29;20203;-61
2022/05/23 04:06:23;;;;;;;10.17;6.23;;;12.80;99.90;;;;;;4930023;29;20210;-61
2022/05/23 04:08:49;;;;;;;19.20;8.57;;;12.80;99.90;;;;;;4935013;28;20233;-61
2022/05/23 04:11:15;;;;;;;44.43;14.60;;;12.80;99.90;;;;;;4930128;29;20254;-62
2022/05/23 04:13:40;;;;;;;29.67;10.97;;;12.80;99.90;;;;;;4943414;29;20300;-61
2022/05/23 04:16:06;;;;;;;16.00;8.73;;;12.80;99.90;;;;;;4933540;29;20225;-61
2022/05/23 04:18:33;;;;;;;18.20;8.13;;;12.90;99.90;;;;;;4933128;29;20685;-61
2022/05/23 04:21:01;;;;;;;140.03;129.93;;;13.00;99.90;;;;;;4939595;28;20669;-61
2022/05/23 04:23:27;;;;;;;215.43;201.10;;;13.10;99.90;;;;;;4932393;29;20716;-61
2022/05/23 04:25:52;;;;;;;87.47;79.13;;;13.10;99.90;;;;;;4939884;29;20998;-61
2022/05/23 04:28:19;;;;;;;8.93;6.40;;;13.10;99.90;;;;;;4922008;29;20214;-61
2022/05/23 04:30:45;;;;;;;8.40;5.50;;;13.20;99.90;;;;;;4929647;29;20206;-61
2022/05/23 04:35:57;;;;;;;33.80;25.43;;;13.20;99.90;;;;;;4921681;29;20318;-61
2022/05/23 04:38:23;;;;;;;238.47;224.03;;;13.30;99.90;;;;;;4931504;28;20210;-61
2022/05/23 04:40:48;;;;;;;203.13;190.07;;;13.50;99.90;;;;;;4929041;29;20218;-62
2022/05/23 04:43:14;;;;;;;45.20;38.27;;;13.40;99.90;;;;;;4940165;29;20198;-62
2022/05/23 04:45:41;;;;;;;100.33;93.13;;;13.60;99.90;;;;;;4929619;28;20892;-62
2022/05/23 04:50:51;;;;;;;268.77;251.43;;;13.70;99.90;;;;;;4929417;29;20205;-62
2022/05/23 04:53:17;;;;;;;160.37;149.43;;;13.80;99.90;;;;;;4934797;29;20611;-63
2022/05/23 04:55:43;;;;;;;11.83;7.00;;;13.70;99.90;;;;;;4941544;28;20278;-62
2022/05/23 04:58:10;;;;;;;11.60;6.87;;;13.90;99.90;;;;;;4938858;29;20202;-63
2022/05/23 05:00:36;;;;;;;9.80;6.47;;;14.00;99.90;;;;;;4945273;28;20190;-62
2022/05/23 05:03:01;;;;;;;15.97;14.27;;;14.00;99.90;;;;;;4927200;29;20269;-62
2022/05/23 05:05:29;;;;;;;60.97;55.70;;;14.00;99.90;;;;;;4928662;29;20246;-62
2022/05/23 05:07:55;;;;;;;96.17;88.13;;;14.00;99.90;;;;;;4927157;29;20222;-63
2022/05/23 05:10:23;;;;;;;144.70;134.90;;;14.10;99.90;;;;;;4933588;28;20198;-62
2022/05/23 05:12:49;;;;;;;8.90;5.63;;;14.10;99.90;;;;;;4936033;28;20210;-61
2022/05/23 05:15:14;;;;;;;9.30;5.53;;;14.10;99.90;;;;;;4928838;28;20238;-61
2022/05/23 05:17:40;;;;;;;5.83;4.77;;;14.10;99.90;;;;;;4929060;29;20257;-60
2022/05/23 05:20:08;;;;;;;4.63;4.00;;;14.20;99.90;;;;;;4934773;29;20199;-60
2022/05/23 05:22:35;;;;;;;4.97;4.47;;;14.30;99.90;;;;;;4940072;28;20207;-61
2022/05/23 05:25:00;;;;;;;5.10;4.63;;;14.30;99.90;;;;;;4931954;28;20250;-61
2022/05/23 05:27:26;;;;;;;5.07;4.27;;;14.20;99.90;;;;;;4932840;29;20210;-61
2022/05/23 05:29:52;;;;;;;6.10;4.47;;;14.30;99.90;;;;;;4944756;29;20191;-61
2022/05/23 05:32:24;;;;;;;6.03;4.17;;;14.40;99.90;;;;;;4926382;29;20186;-62
2022/05/23 05:34:59;;;;;;;7.00;4.07;;;14.30;99.90;;;;;;4936934;29;20194;-62
2022/05/23 05:37:31;;;;;;;8.33;3.67;;;14.30;99.90;;;;;;4931415;29;20300;-61
2022/05/23 05:39:58;;;;;;;4.93;4.10;;;14.50;99.90;;;;;;4937321;29;20198;-61
2022/05/23 05:42:36;;;;;;;5.83;3.93;;;14.60;99.90;;;;;;4938608;28;20214;-61
2022/05/23 05:45:16;;;;;;;4.23;3.83;;;14.60;99.90;;;;;;4932935;28;20237;-61
2022/05/23 05:47:44;;;;;;;4.53;3.67;;;14.80;99.90;;;;;;4936087;29;20207;-60
2022/05/23 05:50:17;;;;;;;6.70;4.53;;;14.80;99.90;;;;;;4934149;29;20245;-60
2022/05/23 05:52:45;;;;;;;4.47;3.53;;;14.90;99.90;;;;;;4928215;29;20206;-61
2022/05/23 05:55:12;;;;;;;3.97;3.57;;;14.90;99.90;;;;;;4940274;28;20195;-60
2022/05/23 05:57:37;;;;;;;7.40;4.20;;;15.00;99.90;;;;;;4925384;29;20214;-62
2022/05/23 06:00:05;;;;;;;4.10;3.10;;;15.10;99.90;;;;;;4928851;29;20310;-62
2022/05/23 06:02:30;;;;;;;4.27;2.70;;;15.20;99.90;;;;;;4935080;28;20281;-62
2022/05/23 06:04:56;;;;;;;3.70;2.97;;;15.20;99.90;;;;;;4927708;29;20294;-62
2022/05/23 06:13:17;;;;;;;6.27;3.43;;;15.60;99.90;;;;;;4901085;29;20244;-63
2022/05/23 06:15:44;;;;;;;3.40;3.07;;;15.60;99.90;;;;;;4905887;29;20581;-64
2022/05/23 06:18:10;;;;;;;5.53;3.13;;;15.60;99.90;;;;;;4919653;29;20215;-64
2022/05/23 06:20:36;;;;;;;4.00;3.60;;;15.70;99.90;;;;;;4937057;29;20194;-65
2022/05/23 06:23:02;;;;;;;4.37;2.77;;;16.00;99.90;;;;;;4939478;28;20575;-65
2022/05/23 06:25:28;;;;;;;3.53;3.23;;;16.00;99.90;;;;;;4943830;28;20318;-64
2022/05/23 06:27:53;;;;;;;3.63;2.67;;;16.00;99.90;;;;;;4925245;29;20286;-63
2022/05/23 06:30:19;;;;;;;4.77;2.63;;;16.10;99.90;;;;;;4927198;29;20198;-63
2022/05/23 06:32:46;;;;;;;2.87;2.57;;;16.30;99.90;;;;;;4925205;29;20199;-62
2022/05/23 06:35:12;;;;;;;4.33;2.73;;;16.30;99.90;;;;;;4927473;29;20701;-63
2022/05/23 06:37:40;;;;;;;8.67;5.50;;;16.40;99.90;;;;;;4925288;29;20415;-63
2022/05/23 06:40:09;;;;;;;3.63;3.17;;;16.40;99.90;;;;;;4933060;29;20201;-64
2022/05/23 06:42:35;;;;;;;3.07;2.40;;;16.50;99.90;;;;;;4938471;28;20689;-63
2022/05/23 06:45:02;;;;;;;3.53;2.70;;;16.50;99.90;;;;;;4929398;28;20234;-67
2022/05/23 06:47:28;;;;;;;3.23;2.93;;;16.50;99.90;;;;;;4934182;28;20206;-62
2022/05/23 06:49:54;;;;;;;4.63;2.70;;;16.60;99.90;;;;;;4938305;29;20194;-62
2022/05/23 06:52:19;;;;;;;6.17;2.70;;;16.70;99.90;;;;;;4933609;29;20213;-62
2022/05/23 06:54:45;;;;;;;2.80;2.53;;;16.90;99.90;;;;;;4942940;29;20183;-65
2022/05/23 06:57:11;;;;;;;4.30;2.73;;;17.00;99.90;;;;;;4928988;29;20242;-64
2022/05/23 06:59:37;;;;;;;3.10;2.73;;;17.00;99.90;;;;;;4944692;29;20197;-66
2022/05/23 07:02:06;;;;;;;3.27;2.83;;;17.20;99.90;;;;;;4939881;28;20227;-65
2022/05/23 07:12:45;;;;;;;3.47;2.77;;;17.60;99.10;;;;;;4937070;29;20728;-65
2022/05/23 07:15:11;;;;;;;3.73;2.50;;;17.70;98.90;;;;;;4930383;29;20191;-64
2022/05/23 07:17:36;;;;;;;5.50;2.70;;;17.70;99.10;;;;;;4931061;29;20203;-64
2022/05/23 07:20:03;;;;;;;2.43;2.23;;;17.70;99.10;;;;;;4938466;29;20278;-65
2022/05/23 07:22:28;;;;;;;3.77;2.50;;;17.90;98.50;;;;;;4946606;28;20689;-64
2022/05/23 07:24:54;;;;;;;3.30;2.50;;;17.80;98.20;;;;;;4933121;29;20206;-64
2022/05/23 07:27:27;;;;;;;4.57;3.27;;;17.80;97.70;;;;;;4938182;29;20681;-65
2022/05/23 07:29:53;;;;;;;2.70;2.23;;;17.80;98.00;;;;;;4935118;29;20678;-65
2022/05/23 07:32:18;;;;;;;2.97;2.53;;;18.10;97.50;;;;;;4942365;29;20192;-63
2022/05/23 07:34:44;;;;;;;3.20;2.53;;;18.30;97.10;;;;;;4929057;29;20207;-64
2022/05/23 07:37:10;;;;;;;3.83;2.17;;;18.20;96.70;;;;;;4936736;29;20254;-62
2022/05/23 07:39:37;;;;;;;4.90;2.40;;;18.20;96.40;;;;;;4931049;28;20437;-64
2022/05/23 07:42:03;;;;;;;3.17;2.20;;;18.30;96.90;;;;;;4935782;28;20314;-62
2022/05/23 07:44:30;;;;;;;1.97;1.87;;;18.30;96.20;;;;;;4928715;28;20252;-61
2022/05/23 07:46:56;;;;;;;3.27;2.97;;;18.50;95.70;;;;;;4931314;29;20230;-61
2022/05/23 07:49:22;;;;;;;3.50;2.20;;;18.50;95.70;;;;;;4928565;29;20788;-63
2022/05/23 07:51:48;;;;;;;6.30;2.40;;;18.40;95.30;;;;;;4929529;29;20203;-62
2022/05/23 08:02:26;;;;;;;3.50;2.20;;;18.60;95.50;;;;;;4929869;29;20281;-63
2022/05/23 08:04:53;;;;;;;2.70;2.50;;;18.70;95.10;;;;;;4929448;29;20250;-61
2022/05/23 08:07:18;;;;;;;5.83;3.40;;;18.80;95.20;;;;;;4929913;29;20199;-63
2022/05/23 08:09:44;;;;;;;7.43;2.40;;;18.90;95.20;;;;;;4928811;29;20215;-63
2022/05/23 08:12:11;;;;;;;8.13;3.60;;;19.00;95.00;;;;;;4929392;29;21159;-62
2022/05/23 08:14:37;;;;;;;2.80;2.20;;;19.00;95.00;;;;;;4933743;29;20233;-63
2022/05/23 08:17:03;;;;;;;3.80;2.13;;;19.20;94.60;;;;;;4930166;28;20212;-64
2022/05/23 08:19:29;;;;;;;2.37;2.10;;;19.20;94.30;;;;;;4929147;29;20756;-65
2022/05/23 08:21:58;;;;;;;3.67;2.10;;;19.20;93.90;;;;;;4933435;29;20688;-63
2022/05/23 08:24:23;;;;;;;2.93;1.53;;;19.50;92.70;;;;;;4928429;28;20610;-63
2022/05/23 08:26:49;;;;;;;2.67;1.90;;;19.30;92.50;;;;;;4929689;29;20205;-74
2022/05/23 08:29:15;;;;;;;9.07;2.80;;;19.70;92.40;;;;;;4938295;29;20588;-62
2022/05/23 08:31:41;;;;;;;3.53;1.97;;;19.40;92.00;;;;;;4929508;29;20197;-63
2022/05/23 08:34:07;;;;;;;4.63;2.67;;;19.50;91.80;;;;;;4937810;29;20258;-63
2022/05/23 08:36:33;;;;;;;1.70;1.60;;;19.40;92.10;;;;;;4929691;29;20754;-65
2022/05/23 08:39:00;;;;;;;4.10;2.00;;;19.60;91.90;;;;;;4938797;29;20200;-64
2022/05/23 08:41:30;;;;;;;1.83;1.70;;;19.60;91.70;;;;;;4945802;28;20889;-65
2022/05/23 08:44:10;;;;;;;1.83;1.60;;;19.80;91.50;;;;;;4927190;29;20206;-64
2022/05/23 08:47:13;;;;;;;4.43;3.20;;;19.90;90.10;;;;;;4935286;29;20271;-64
2022/05/23 08:49:47;;;;;;;3.60;2.00;;;19.70;90.00;;;;;;4926872;29;20208;-64
2022/05/23 08:52:37;;;;;;;1.80;1.30;;;19.80;88.50;;;;;;4928788;29;20687;-64
2022/05/23 08:55:09;;;;;;;1.63;1.53;;;19.70;88.70;;;;;;4927063;29;20204;-63
2022/05/23 08:57:50;;;;;;;4.97;1.90;;;19.90;88.40;;;;;;4928598;29;20217;-61
2022/05/23 09:00:26;;;;;;;3.13;1.87;;;20.00;87.30;;;;;;4928008;29;20734;-63
2022/05/23 09:03:07;;;;;;;2.33;1.90;;;20.30;87.80;;;;;;4937846;29;20563;-66
2022/05/23 09:05:37;;;;;;;2.53;1.90;;;20.40;85.60;;;;;;4938232;29;20203;-65
2022/05/23 09:08:13;;;;;;;2.27;1.60;;;20.40;83.90;;;;;;4937161;28;20955;-65
2022/05/23 09:10:57;;;;;;;1.30;1.20;;;20.40;83.10;;;;;;4938495;28;20200;-64
2022/05/23 09:13:27;;;;;;;4.30;1.37;;;20.60;82.30;;;;;;4934072;29;20210;-64
2022/05/23 09:15:54;;;;;;;1.70;1.60;;;20.70;80.10;;;;;;4941703;29;21047;-64
2022/05/23 09:18:22;;;;;;;1.47;1.37;;;20.50;81.90;;;;;;4940819;28;20206;-62
2022/05/23 09:20:51;;;;;;;3.30;1.63;;;20.70;80.20;;;;;;4934198;29;20193;-63
2022/05/23 09:23:34;;;;;;;2.10;1.80;;;21.00;80.10;;;;;;4927453;29;20203;-62
2022/05/23 09:26:03;;;;;;;1.60;1.50;;;21.00;77.80;;;;;;4928258;29;20189;-63
2022/05/23 09:28:36;;;;;;;2.80;1.50;;;21.10;76.80;;;;;;4926560;28;20256;-62
2022/05/23 09:31:27;;;;;;;2.73;2.07;;;21.10;77.20;;;;;;4928396;29;20641;-64
2022/05/23 09:33:55;;;;;;;4.00;2.13;;;21.10;76.90;;;;;;4926957;29;20217;-65
2022/05/23 09:36:30;;;;;;;3.03;1.73;;;21.00;76.40;;;;;;4927709;29;20242;-64
2022/05/23 09:38:59;;;;;;;1.70;1.60;;;21.30;75.50;;;;;;4924662;29;20209;-64
2022/05/23 09:49:48;;;;;;;1.97;1.53;;;21.40;73.50;;;;;;4925107;29;20321;-66
2022/05/23 09:52:27;;;;;;;5.10;3.47;;;21.60;74.20;;;;;;4927439;29;20725;-69
2022/05/23 09:54:57;;;;;;;5.87;3.17;;;21.40;73.30;;;;;;4937459;29;20256;-66
2022/05/23 09:57:35;;;;;;;6.60;3.70;;;21.60;74.00;;;;;;4925766;29;20563;-66
2022/05/23 10:00:26;;;;;;;5.00;3.70;;;21.60;73.90;;;;;;4933104;29;20194;-65
2022/05/23 10:02:57;;;;;;;5.20;3.73;;;21.80;73.10;;;;;;4920958;29;20696;-66
2022/05/23 10:05:28;;;;;;;1.90;1.63;;;21.70;72.40;;;;;;4927908;29;20202;-66
2022/05/23 10:08:02;;;;;;;4.90;3.10;;;21.70;73.00;;;;;;4927313;29;20209;-64
2022/05/23 10:10:31;;;;;;;14.63;5.80;;;21.90;72.20;;;;;;4925575;29;20533;-64
2022/05/23 10:13:24;;;;;;;55.57;51.63;;;22.30;72.70;;;;;;4939088;29;20209;-61
2022/05/23 10:16:08;;;;;;;4.33;3.10;;;22.40;71.00;;;;;;4927416;29;20203;-65
2022/05/23 10:18:52;;;;;;;7.90;4.77;;;22.40;71.00;;;;;;4921203;29;20567;-65
2022/05/23 10:21:35;;;;;;;11.80;4.20;;;22.40;71.20;;;;;;4923854;29;20222;-67
2022/05/23 10:24:20;;;;;;;25.67;8.07;;;22.20;71.50;;;;;;4933746;29;20205;-66
2022/05/23 10:26:50;;;;;;;20.53;6.87;;;22.40;70.80;;;;;;4929211;29;20252;-64
2022/05/23 10:29:52;;;;;;;18.50;6.00;;;22.50;71.30;;;;;;4935249;28;20692;-63
2022/05/23 10:32:40;;;;;;;17.93;5.93;;;22.90;69.90;;;;;;4933546;29;20867;-63
2022/05/23 10:35:17;;;;;;;12.17;4.67;;;22.80;69.50;;;;;;4942977;29;20277;-64
2022/05/23 10:37:44;;;;;;;14.98;5.68;;;23.00;68.60;;;;;;4939821;29;20302;-64
2022/05/23 10:43:20;;;;;;;20.85;5.80;;;22.70;68.80;;;;;;4931924;29;20237;-64
2022/05/23 10:45:46;;;;;;;10.73;4.07;;;22.60;68.10;;;;;;4915290;29;20539;-65
2022/05/23 10:48:21;;;;;;;10.05;3.72;;;22.90;67.80;;;;;;4941472;29;20837;-65
2022/05/23 10:50:54;;;;;;;15.90;5.03;;;22.70;67.10;;;;;;4941712;28;20332;-65
2022/05/23 10:53:34;;;;;;;20.20;6.40;;;22.70;67.90;;;;;;4932564;29;20351;-65
2022/05/23 10:56:22;;;;;;;20.40;5.75;;;23.20;69.10;;;;;;4927708;29;20214;-65
2022/05/23 10:59:08;;;;;;;15.50;4.95;;;23.70;66.30;;;;;;4943083;28;20203;-65
2022/05/23 11:01:56;;;;;;;1.08;1.05;;;23.80;65.90;;;;;;4934831;29;20410;-63
2022/05/23 11:04:59;;;;;;;2.72;2.40;;;23.90;64.60;;;;;;4932699;28;20764;-64
2022/05/23 11:07:44;;;;;;;2.22;1.58;;;23.60;66.00;;;;;;4931522;29;20219;-63
2022/05/23 11:10:41;;;;;;;3.70;1.67;;;23.60;65.60;;;;;;4934093;29;20187;-63
2022/05/23 11:13:45;;;;;;;2.35;1.30;;;23.70;65.30;;;;;;4934191;29;20699;-62
2022/05/23 11:16:21;;;;;;;2.85;1.40;;;23.80;64.10;;;;;;4922531;29;20250;-63
2022/05/23 11:19:16;;;;;;;2.22;1.77;;;23.80;63.20;;;;;;4929076;29;20210;-62
2022/05/23 11:22:07;;;;;;;27.33;22.77;;;24.00;62.60;;;;;;4933005;29;20188;-62
2022/05/23 11:24:59;;;;;;;535.75;488.23;;;24.50;62.20;;;;;;4934074;29;20687;-62
2022/05/23 11:35:43;;;;;;;600.95;548.25;;;24.50;63.10;;;;;;4930695;29;20223;-63
2022/05/23 11:38:10;;;;;;;586.05;531.88;;;24.40;60.50;;;;;;4928324;29;20654;-63
2022/05/23 11:44:00;;;;;;;2.22;1.70;;;24.70;61.00;;;;;;4925712;29;20545;-62
2022/05/23 11:49:42;;;;;;;2.22;1.70;;;24.90;58.50;;;;;;4971593;23;20969;-59
2022/05/23 11:52:24;;;;;;;2.35;1.80;;;25.30;59.30;;;;;;4911543;29;20720;-59
2022/05/23 11:54:50;;;;;;;1.13;1.10;;;25.20;59.00;;;;;;4922729;29;20182;-60
2022/05/23 11:57:30;;;;;;;5.30;1.60;;;25.50;58.10;;;;;;4922424;29;20217;-61
2022/05/23 11:59:56;;;;;;;4.13;2.35;;;25.90;57.00;;;;;;4921372;29;20536;-60
2022/05/23 12:02:25;;;;;;;3.22;1.65;;;25.90;56.80;;;;;;4918275;29;20738;-60
2022/05/23 12:04:51;;;;;;;2.33;1.50;;;25.60;57.90;;;;;;4920850;29;20643;-60
2022/05/23 12:07:39;;;;;;;3.90;1.30;;;25.60;56.50;;;;;;4917857;29;20209;-60
2022/05/23 12:10:24;;;;;;;5.40;2.35;;;25.70;57.20;;;;;;4919497;29;20179;-60
2022/05/23 12:12:54;;;;;;;2.47;1.55;;;26.00;56.60;;;;;;4919784;29;20189;-61
2022/05/23 12:15:42;;;;;;;4.70;1.75;;;25.60;57.90;;;;;;4919041;29;20178;-61
2022/05/23 12:18:09;;;;;;;2.75;2.35;;;25.60;57.00;;;;;;4919765;29;20175;-59
2022/05/23 12:20:45;;;;;;;1.73;1.30;;;25.90;58.10;;;;;;4918460;29;20199;-59
2022/05/23 12:23:32;;;;;;;1.05;1.05;;;26.30;55.80;;;;;;4927841;29;20174;-60
2022/05/23 12:26:05;;;;;;;5.15;1.67;;;26.80;55.60;;;;;;4917182;29;20215;-60
2022/05/23 12:28:50;;;;;;;479.13;436.70;;;27.50;54.50;;;;;;4910839;29;20547;-60
2022/05/23 12:31:27;;;;;;;770.95;708.78;;;27.60;54.50;;;;;;4918196;29;20203;-60
2022/05/23 12:34:02;;;;;;;1156.22;999.90;;;28.30;55.00;;;;;;4930087;29;20289;-60
2022/05/23 12:36:31;;;;;;;912.35;834.95;;;28.90;52.40;;;;;;4917456;29;20242;-61
2022/05/23 12:38:56;;;;;;;1012.50;929.42;;;28.90;50.20;;;;;;4911232;29;20274;-60
2022/05/23 12:42:03;;;;;;;723.17;661.88;;;28.20;49.50;;;;;;4919140;29;20294;-65
2022/05/23 12:45:11;;;;;;;579.33;529.90;;;28.40;50.80;;;;;;4897392;29;20187;-62
2022/05/23 12:48:15;;;;;;;920.33;844.00;;;28.30;49.60;;;;;;4905413;29;20635;-63
2022/05/23 12:51:11;;;;;;;994.35;914.08;;;28.90;50.20;;;;;;4912531;29;20273;-63
2022/05/23 12:54:06;;;;;;;589.55;540.72;;;28.30;47.90;;;;;;4928570;29;20191;-63
2022/05/23 12:57:19;;;;;;;7.28;4.63;;;27.80;49.70;;;;;;4925358;29;20241;-62
2022/05/23 12:59:54;;;;;;;1.67;1.33;;;27.90;49.90;;;;;;4918519;29;20195;-62
2022/05/23 13:02:34;;;;;;;3.28;1.75;;;27.10;49.00;;;;;;4926715;29;20194;-62
2022/05/23 13:05:12;;;;;;;1.75;1.48;;;26.50;49.60;;;;;;4937663;29;20353;-62
2022/05/23 13:08:02;;;;;;;2.05;1.20;;;26.20;51.40;;;;;;4940228;29;20229;-63
2022/05/23 13:10:37;;;;;;;2.28;1.50;;;26.10;50.30;;;;;;4935155;28;20375;-62
2022/05/23 13:13:08;;;;;;;4.68;1.85;;;26.10;50.90;;;;;;4940893;28;20276;-62
2022/05/23 13:15:35;;;;;;;4.00;2.13;;;26.00;51.50;;;;;;4926677;29;20199;-63
2022/05/23 13:23:34;;;;;;;5.57;1.60;;;28.00;49.70;;;;;;4939475;29;20234;-62
2022/05/23 13:26:07;;;;;;;3.28;2.25;;;29.10;48.80;;;;;;4937896;29;20242;-63
2022/05/23 13:28:39;;;;;;;2.83;1.45;;;29.70;47.00;;;;;;4920332;29;20190;-63
2022/05/23 13:31:25;;;;;;;2.38;1.40;;;29.90;46.50;;;;;;4927951;29;20198;-62
2022/05/23 13:33:51;;;;;;;3.85;2.40;;;30.40;45.70;;;;;;4932985;29;20189;-62
2022/05/23 13:36:17;;;;;;;2.08;1.88;;;30.20;46.20;;;;;;4935405;28;20217;-62
2022/05/23 13:38:59;;;;;;;3.67;1.98;;;29.70;45.50;;;;;;4936915;28;20207;-63
2022/05/23 13:41:30;;;;;;;2.22;1.83;;;29.90;46.20;;;;;;4927223;29;20200;-63
2022/05/23 13:43:55;;;;;;;1.80;1.70;;;29.80;45.50;;;;;;4941156;28;20664;-63
2022/05/23 13:46:36;;;;;;;1.83;1.73;;;29.60;45.80;;;;;;4928362;29;20211;-61
2022/05/23 13:49:20;;;;;;;6.07;2.45;;;29.20;45.60;;;;;;4920287;29;20392;-62
2022/05/23 13:51:51;;;;;;;5.20;1.83;;;29.90;45.90;;;;;;4925652;29;20239;-61
2022/05/23 13:54:25;;;;;;;4.25;1.58;;;29.80;45.90;;;;;;4933898;29;20253;-61
2022/05/23 13:57:00;;;;;;;5.35;2.10;;;30.10;45.00;;;;;;4931060;29;20246;-61
2022/05/23 13:59:32;;;;;;;2.92;1.55;;;30.80;44.50;;;;;;4933061;29;20209;-62
2022/05/23 14:02:05;;;;;;;3.30;2.03;;;30.90;43.70;;;;;;4941337;29;20178;-62
2022/05/23 14:04:36;;;;;;;1.38;1.27;;;31.40;44.00;;;;;;4939446;28;20210;-61
2022/05/23 14:07:11;;;;;;;2.28;1.85;;;31.70;42.10;;;;;;4937848;29;20194;-63
2022/05/23 14:09:49;;;;;;;4.28;2.30;;;30.80;43.20;;;;;;4930212;29;20229;-62
2022/05/23 14:12:30;;;;;;;2.38;1.83;;;30.90;44.50;;;;;;4928083;29;20219;-62
2022/05/23 14:15:01;;;;;;;3.97;2.60;;;31.40;43.80;;;;;;4931915;29;20213;-62
2022/05/23 14:17:35;;;;;;;3.35;2.85;;;31.80;41.90;;;;;;4931438;28;20215;-63